Curtis Field
KBBD : now visible

Airfield :











YOU CAN JOIN US ON...

 
LOGIN :

Register | Disclaimer

   EN    FR    IT 

 









Legend :    VFR   Marginal VFR   IFR   Intensive IFR   Very Intensive IFR
Visi :
Ceiling :
>= 8 km
>= 3000ft
5 to 8 km
1000 to 3000 ft
1500m to 5 km
500 to 1000 ft
800 to 1500m
200 to 500 ft
< 800m
< 200 ft
Symbols :   Thunderstorms  Fog  Heavy snow  Heavy precipitations  Wind > 20 kt






- Airport Elevation : 1827 ft


KBBD - Curtis Field

CURRENT METAR :
  • 070355Z AUTO 23004KT 10SM FEW070 FEW090 SCT110 18/17 A3006 RMK AO2

EXPIRED METARs :
  • 070335Z AUTO 23004KT 10SM FEW055 FEW070 SCT110 18/17 A3005 RMK AO2
  • 070315Z AUTO 24004KT 10SM FEW090 FEW110 19/17 A3006 RMK AO2
  • 070255Z AUTO 23004KT 10SM FEW080 BKN110 19/17 A3004 RMK AO2
  • 070235Z AUTO 22004KT 10SM FEW085 BKN120 19/17 A3004 RMK AO2
  • 070215Z AUTO 22004KT 10SM BKN110 19/17 A3003 RMK AO2
  • 070155Z AUTO 18004KT 10SM FEW047 FEW080 OVC110 19/17 A3002 RMK AO2
  • 070135Z AUTO 20005KT 10SM SCT048 BKN075 OVC120 19/17 A3001 RMK AO2
  • 070115Z AUTO 16006KT 10SM FEW065 SCT075 BKN085 19/17 A2999 RMK AO2
  • 070055Z AUTO 15006KT 10SM FEW045 SCT065 BKN075 19/17 A2998 RMK AO2

TAF KBBD
Valid from the 07 at 00:00 until the 08 at 00:00 UTC


062333Z 0700/0724 15005KT P6SM FEW060 OVC100
FM070500 18004KT P6SM VCSH SCT035 OVC060
FM071000 17004KT P6SM -SHRA BKN015
FM071400 16004KT P6SM VCSH OVC010
FM071800 16008KT P6SM OVC018
FM072100 17009KT P6SM SCT018 OVC030
KZHU FIR / North America



MET'MAP, your aeronautical weather chart ! - Copyright ORBIFLY December 2007 - Disclaimer

ORBIFLY MET'MAP TEAM :

Programming & Development : Alexandra Zaïnal
Original concept : Baudouin d'Aumeries
Technical & hardware support : Manuel Goepfert
Assistance : Marc-Olivier Méhu




SOURCES & CREDITS :

   NOAA       Earth
Advisory